createdAt,value
2022-10-17T00:01:45.922Z,17.25
2022-10-17T00:04:11.949Z,17.25
2022-10-17T00:06:39.167Z,17.19
2022-10-17T00:09:05.175Z,17.13
2022-10-17T00:11:31.318Z,17.08
2022-10-17T00:13:57.353Z,17.06
2022-10-17T00:16:41.218Z,17.16
2022-10-17T00:19:07.355Z,17.16
2022-10-17T00:21:33.447Z,17.11
2022-10-17T00:24:00.316Z,17.01
2022-10-17T00:26:28.826Z,17.07
2022-10-17T00:28:55.117Z,17.11
2022-10-17T00:31:22.248Z,16.72
2022-10-17T00:33:48.433Z,16.26
2022-10-17T00:36:22.030Z,16.99
2022-10-17T00:38:54.907Z,16.94
2022-10-17T00:41:23.758Z,17.05
2022-10-17T00:43:59.885Z,17.04
2022-10-17T00:46:37.137Z,15.52
2022-10-17T00:49:06.497Z,16.98
2022-10-17T00:51:59.803Z,17.01
2022-10-17T00:54:33.806Z,17.00
2022-10-17T00:57:00.248Z,16.03
2022-10-17T00:59:26.661Z,17.10
2022-10-17T01:02:12.637Z,17.06
2022-10-17T01:04:41.064Z,17.03
2022-10-17T01:07:07.533Z,17.00
2022-10-17T01:09:33.784Z,16.91
2022-10-17T01:12:20.389Z,16.94
2022-10-17T01:15:05.235Z,17.01
2022-10-17T01:18:02.583Z,16.92
2022-10-17T01:20:40.769Z,16.84
2022-10-17T01:23:45.361Z,17.04
2022-10-17T01:26:36.208Z,16.92
2022-10-17T01:29:21.145Z,16.95
2022-10-17T01:31:52.139Z,16.88
2022-10-17T01:34:35.490Z,17.03
2022-10-17T01:37:05.968Z,16.80
2022-10-17T01:39:36.988Z,16.87
2022-10-17T01:42:55.757Z,16.69
2022-10-17T01:45:26.615Z,16.51
2022-10-17T01:47:53.954Z,16.45
2022-10-17T01:50:28.153Z,16.00
2022-10-17T01:53:15.912Z,16.55
2022-10-17T01:55:44.011Z,15.78
2022-10-17T01:58:13.634Z,16.62
2022-10-17T02:00:44.977Z,15.29
2022-10-17T02:03:17.454Z,16.46
2022-10-17T02:05:51.579Z,16.35
2022-10-17T02:08:31.382Z,16.37
2022-10-17T02:11:04.862Z,16.33
2022-10-17T02:16:54.411Z,16.26
2022-10-17T02:19:37.308Z,16.36
2022-10-17T02:22:09.513Z,16.38
2022-10-17T02:24:58.976Z,16.30
2022-10-17T02:27:55.959Z,16.36
2022-10-17T02:30:33.501Z,16.28
2022-10-17T02:33:11.003Z,15.82
2022-10-17T02:35:44.023Z,16.29
2022-10-17T02:38:14.013Z,15.68
2022-10-17T02:40:45.044Z,16.00
2022-10-17T02:43:15.052Z,16.16
2022-10-17T02:45:46.050Z,16.21
2022-10-17T02:48:26.741Z,16.13
2022-10-17T02:50:59.982Z,16.13
2022-10-17T02:53:31.986Z,16.19
2022-10-17T02:56:02.232Z,16.18
2022-10-17T02:58:31.607Z,15.82
2022-10-17T03:00:58.722Z,16.21
2022-10-17T03:03:29.825Z,15.85
2022-10-17T03:05:56.000Z,16.07
2022-10-17T03:08:31.536Z,16.10
2022-10-17T03:10:57.642Z,15.96
2022-10-17T03:13:23.907Z,15.79
2022-10-17T03:15:50.790Z,16.19
2022-10-17T03:18:24.824Z,16.18
2022-10-17T03:20:53.983Z,16.22
2022-10-17T03:23:22.855Z,16.24
2022-10-17T03:25:52.785Z,16.08
2022-10-17T03:28:21.069Z,16.19
2022-10-17T03:30:50.092Z,16.27
2022-10-17T03:33:19.101Z,16.03
2022-10-17T03:38:18.144Z,16.21
2022-10-17T03:40:54.760Z,16.08
2022-10-17T03:43:20.818Z,16.10
2022-10-17T03:45:56.155Z,15.82
2022-10-17T03:48:24.879Z,16.12
2022-10-17T03:51:01.490Z,16.04
2022-10-17T03:53:28.075Z,16.05
2022-10-17T03:55:54.405Z,16.13
2022-10-17T03:58:21.649Z,16.12
2022-10-17T04:00:51.736Z,16.15
2022-10-17T04:03:19.962Z,16.27
2022-10-17T04:05:49.684Z,16.27
2022-10-17T04:08:18.405Z,16.12
2022-10-17T04:10:47.772Z,16.26
2022-10-17T04:13:20.925Z,16.17
2022-10-17T04:16:20.142Z,16.18
2022-10-17T04:18:55.078Z,16.26
2022-10-17T04:21:26.155Z,15.05
2022-10-17T04:23:56.485Z,16.23
2022-10-17T04:26:22.904Z,16.26
2022-10-17T04:28:53.192Z,14.79
2022-10-17T04:31:23.428Z,16.17
2022-10-17T04:33:49.970Z,16.20
2022-10-17T04:36:18.505Z,16.34
2022-10-17T04:38:48.710Z,16.23
2022-10-17T04:41:19.350Z,16.26
2022-10-17T04:43:48.480Z,16.18
2022-10-17T04:46:22.427Z,16.20
2022-10-17T04:48:53.540Z,16.26
2022-10-17T04:51:23.063Z,16.18
2022-10-17T04:53:52.072Z,16.03
2022-10-17T04:56:23.762Z,16.32
2022-10-17T04:58:53.673Z,16.16
2022-10-17T05:01:21.410Z,16.24
2022-10-17T05:03:47.594Z,16.27
2022-10-17T05:06:20.209Z,16.28
2022-10-17T05:08:50.476Z,16.34
2022-10-17T05:11:26.153Z,15.92
2022-10-17T05:13:59.207Z,15.87
2022-10-17T05:16:29.478Z,16.37
2022-10-17T05:19:00.224Z,16.37
2022-10-17T05:21:28.939Z,16.05
2022-10-17T05:23:59.040Z,16.38
2022-10-17T05:26:28.566Z,14.91
2022-10-17T05:28:55.074Z,15.15
2022-10-17T05:31:29.340Z,16.42
2022-10-17T05:34:01.974Z,16.40
2022-10-17T05:36:31.968Z,16.36
2022-10-17T05:38:58.010Z,16.19
2022-10-17T05:41:27.772Z,16.42
2022-10-17T05:43:59.431Z,16.46
2022-10-17T05:46:31.708Z,15.37
2022-10-17T05:49:14.783Z,15.64
2022-10-17T05:51:55.119Z,16.34
2022-10-17T05:54:24.902Z,16.38
2022-10-17T05:56:56.073Z,16.39
2022-10-17T05:59:26.036Z,16.20
2022-10-17T06:01:56.113Z,16.46
2022-10-17T06:04:30.042Z,16.47
2022-10-17T06:06:59.655Z,16.44
2022-10-17T06:09:29.924Z,16.54
2022-10-17T06:11:59.712Z,16.40
2022-10-17T06:14:29.722Z,16.26
2022-10-17T06:17:00.627Z,16.48
2022-10-17T06:19:30.661Z,16.47
2022-10-17T06:22:05.271Z,16.34
2022-10-17T06:24:35.094Z,16.62
2022-10-17T06:27:10.807Z,16.43
2022-10-17T06:29:47.504Z,16.51
2022-10-17T06:32:17.636Z,15.16
2022-10-17T06:34:47.251Z,16.61
2022-10-17T06:37:17.127Z,16.52
2022-10-17T06:39:46.915Z,16.45
2022-10-17T06:42:17.067Z,16.52
2022-10-17T06:44:46.825Z,16.61
2022-10-17T06:47:21.842Z,16.85
2022-10-17T06:49:51.542Z,16.79
2022-10-17T06:52:21.725Z,16.81
2022-10-17T06:54:51.983Z,16.86
2022-10-17T06:57:21.642Z,16.96
2022-10-17T06:59:52.579Z,16.62
2022-10-17T07:02:23.523Z,17.17
2022-10-17T07:04:56.023Z,17.27
2022-10-17T07:07:25.173Z,17.18
2022-10-17T07:09:54.272Z,17.43
2022-10-17T07:12:24.129Z,17.27
2022-10-17T07:14:52.919Z,17.55
2022-10-17T07:17:22.245Z,17.48
2022-10-17T07:19:51.436Z,17.89
2022-10-17T07:22:20.994Z,17.77
2022-10-17T07:27:20.861Z,17.86
2022-10-17T07:29:48.931Z,17.84
2022-10-17T07:32:18.540Z,17.90
2022-10-17T07:34:47.896Z,17.90
2022-10-17T07:37:17.164Z,17.73
2022-10-17T07:39:46.404Z,17.83
2022-10-17T07:42:19.273Z,17.54
2022-10-17T07:44:48.564Z,17.01
2022-10-17T07:47:17.681Z,17.14
2022-10-17T07:49:46.779Z,17.57
2022-10-17T07:52:18.100Z,17.42
2022-10-17T07:54:46.186Z,17.58
2022-10-17T07:57:15.292Z,17.62
2022-10-17T07:59:44.500Z,17.37
2022-10-17T08:02:21.299Z,17.41
2022-10-17T08:04:47.327Z,17.57
2022-10-17T08:07:23.082Z,17.43
2022-10-17T08:09:56.201Z,17.59
2022-10-17T08:12:23.560Z,17.63
2022-10-17T08:14:49.860Z,17.58
2022-10-17T08:17:15.892Z,17.68
2022-10-17T08:19:47.379Z,17.66
2022-10-17T08:22:16.579Z,17.61
2022-10-17T08:24:45.624Z,17.61
2022-10-17T08:27:20.623Z,17.71
2022-10-17T08:29:48.109Z,17.65
2022-10-17T08:32:14.153Z,17.75
2022-10-17T08:34:42.959Z,18.02
2022-10-17T08:37:13.245Z,17.88
2022-10-17T08:39:42.481Z,18.12
2022-10-17T08:42:26.516Z,17.93
2022-10-17T08:45:16.869Z,18.25
2022-10-17T08:47:48.053Z,18.32
2022-10-17T08:50:20.939Z,18.46
2022-10-17T08:52:54.145Z,18.35
2022-10-17T08:55:40.043Z,18.54
2022-10-17T08:58:23.378Z,18.63
2022-10-17T09:01:28.632Z,18.71
2022-10-17T09:04:18.643Z,18.97
2022-10-17T09:07:11.842Z,19.08
2022-10-17T09:09:43.503Z,19.11
2022-10-17T09:12:15.619Z,19.28
2022-10-17T09:15:24.343Z,19.40
2022-10-17T09:17:54.121Z,19.31
2022-10-17T09:20:31.723Z,19.42
2022-10-17T09:23:05.952Z,19.48
2022-10-17T09:25:41.357Z,19.80
2022-10-17T09:28:36.587Z,19.93
2022-10-17T09:31:19.923Z,20.03
2022-10-17T09:33:55.382Z,20.08
2022-10-17T09:36:32.465Z,20.16
2022-10-17T09:39:04.224Z,20.22
2022-10-17T09:41:46.429Z,20.21
2022-10-17T09:44:23.818Z,20.41
2022-10-17T09:47:22.450Z,20.52
2022-10-17T09:49:56.084Z,20.59
2022-10-17T09:52:33.857Z,20.72
2022-10-17T09:55:26.421Z,20.99
2022-10-17T09:57:59.610Z,20.96
2022-10-17T10:00:32.770Z,20.52
2022-10-17T10:03:24.544Z,20.82
2022-10-17T10:06:14.041Z,21.09
2022-10-17T10:08:55.049Z,21.13
2022-10-17T10:11:43.302Z,21.37
2022-10-17T10:14:19.022Z,21.67
2022-10-17T10:16:47.431Z,20.31
2022-10-17T10:19:31.466Z,19.45
2022-10-17T10:22:14.136Z,21.86
2022-10-17T10:24:40.114Z,21.71
2022-10-17T10:27:12.511Z,21.76
2022-10-17T10:29:51.425Z,20.81
2022-10-17T10:32:25.842Z,22.26
2022-10-17T10:35:18.728Z,22.23
2022-10-17T10:37:53.892Z,22.32
2022-10-17T10:40:38.065Z,22.35
2022-10-17T10:43:24.574Z,22.46
2022-10-17T10:46:00.110Z,22.50
2022-10-17T10:48:34.757Z,22.48
2022-10-17T10:51:16.913Z,22.74
2022-10-17T10:54:10.300Z,23.00
2022-10-17T10:56:36.276Z,22.92
2022-10-17T10:59:20.243Z,22.84
2022-10-17T11:02:04.342Z,23.03
2022-10-17T11:04:30.375Z,22.97
2022-10-17T11:07:13.924Z,22.96
2022-10-17T11:09:43.929Z,22.96
2022-10-17T11:12:19.854Z,23.31
2022-10-17T11:15:01.464Z,23.37
2022-10-17T11:17:34.091Z,23.60
2022-10-17T11:20:07.939Z,23.41
2022-10-17T11:22:47.061Z,22.18
2022-10-17T11:25:20.832Z,23.49
2022-10-17T11:27:52.088Z,23.14
2022-10-17T11:30:24.052Z,19.95
2022-10-17T11:32:59.603Z,22.76
2022-10-17T11:35:37.390Z,23.13
2022-10-17T11:38:17.517Z,23.53
2022-10-17T11:40:51.969Z,22.47
2022-10-17T11:43:40.304Z,22.75
2022-10-17T11:46:18.401Z,22.58
2022-10-17T11:48:54.661Z,22.91
2022-10-17T11:54:11.731Z,23.79
2022-10-17T11:56:54.111Z,23.70
2022-10-17T11:59:38.966Z,24.32
2022-10-17T12:02:13.182Z,24.06
2022-10-17T12:05:04.980Z,24.37
2022-10-17T12:07:55.697Z,24.48
2022-10-17T12:10:38.647Z,24.43
2022-10-17T12:13:26.821Z,24.05
2022-10-17T12:15:56.020Z,23.95
2022-10-17T12:18:29.204Z,23.97
2022-10-17T12:20:59.801Z,24.18
2022-10-17T12:23:30.262Z,24.50
2022-10-17T12:26:04.046Z,24.54
2022-10-17T12:28:37.334Z,24.74
2022-10-17T12:31:05.378Z,24.44
2022-10-17T12:33:32.954Z,24.14
2022-10-17T12:36:27.550Z,24.12
2022-10-17T12:39:00.688Z,24.02
2022-10-17T12:41:37.796Z,23.94
2022-10-17T12:44:13.550Z,24.45
2022-10-17T12:47:03.166Z,24.39
2022-10-17T12:49:40.720Z,24.37
2022-10-17T12:52:21.398Z,24.41
2022-10-17T12:55:11.441Z,23.00
2022-10-17T12:57:54.997Z,24.26
2022-10-17T13:00:43.842Z,24.51
2022-10-17T13:03:20.592Z,24.62
2022-10-17T13:05:52.682Z,24.56
2022-10-17T13:08:24.768Z,23.95
2022-10-17T13:10:52.740Z,23.41
2022-10-17T13:13:23.080Z,24.16
2022-10-17T13:15:54.836Z,24.32
2022-10-17T13:18:23.729Z,24.20
2022-10-17T13:20:59.050Z,24.75
2022-10-17T13:23:34.239Z,24.98
2022-10-17T13:26:04.630Z,25.03
2022-10-17T13:28:30.818Z,24.27
2022-10-17T13:30:57.172Z,24.30
2022-10-17T13:33:35.161Z,24.21
2022-10-17T13:36:15.122Z,24.06
2022-10-17T13:38:49.251Z,22.86
2022-10-17T13:41:35.352Z,24.23
2022-10-17T13:44:17.980Z,24.09
2022-10-17T13:46:48.894Z,23.90
2022-10-17T13:49:24.410Z,23.68
2022-10-17T13:52:02.301Z,24.01
2022-10-17T13:54:36.655Z,23.93
2022-10-17T13:57:31.587Z,23.88
2022-10-17T14:00:11.675Z,23.81
2022-10-17T14:02:42.636Z,23.81
2022-10-17T14:05:20.368Z,23.62
2022-10-17T14:08:25.345Z,23.67
2022-10-17T14:10:51.839Z,23.63
2022-10-17T14:13:26.905Z,23.37
2022-10-17T14:15:54.325Z,23.59
2022-10-17T14:18:36.456Z,23.68
2022-10-17T14:24:22.930Z,23.58
2022-10-17T14:26:58.135Z,23.51
2022-10-17T14:29:49.033Z,23.41
2022-10-17T14:32:19.800Z,23.11
2022-10-17T14:35:01.539Z,23.37
2022-10-17T14:37:45.082Z,23.31
2022-10-17T14:40:17.103Z,22.36
2022-10-17T14:42:43.517Z,23.28
2022-10-17T14:45:25.522Z,23.15
2022-10-17T14:47:53.305Z,23.15
2022-10-17T14:50:25.897Z,23.03
2022-10-17T14:53:11.391Z,23.04
2022-10-17T14:56:01.446Z,22.93
2022-10-17T14:58:32.959Z,22.31
2022-10-17T15:01:03.553Z,22.74
2022-10-17T15:03:33.481Z,22.66
2022-10-17T15:06:20.029Z,22.62
2022-10-17T15:08:56.128Z,22.58
2022-10-17T15:11:26.290Z,22.46
2022-10-17T15:13:56.171Z,22.47
2022-10-17T15:16:30.043Z,22.39
2022-10-17T15:19:00.416Z,22.47
2022-10-17T15:21:41.870Z,22.36
2022-10-17T15:24:15.156Z,22.34
2022-10-17T15:26:45.330Z,22.15
2022-10-17T15:29:15.407Z,22.29
2022-10-17T15:31:45.901Z,22.26
2022-10-17T15:34:19.369Z,22.12
2022-10-17T15:36:51.768Z,22.07
2022-10-17T15:39:21.567Z,22.07
2022-10-17T15:41:51.993Z,22.11
2022-10-17T15:44:22.189Z,22.01
2022-10-17T15:46:54.983Z,21.96
2022-10-17T15:49:25.042Z,22.00
2022-10-17T15:51:57.366Z,21.94
2022-10-17T15:54:27.112Z,22.03
2022-10-17T15:56:57.998Z,21.78
2022-10-17T15:59:31.735Z,21.74
2022-10-17T16:01:57.717Z,21.77
2022-10-17T16:04:29.886Z,21.74
2022-10-17T16:06:57.592Z,21.70
2022-10-17T16:09:30.736Z,21.73
2022-10-17T16:12:00.603Z,21.67
2022-10-17T16:14:30.980Z,21.65
2022-10-17T16:16:59.399Z,21.64
2022-10-17T16:19:29.261Z,21.55
2022-10-17T16:21:59.583Z,21.57
2022-10-17T16:24:28.301Z,21.55
2022-10-17T16:26:55.089Z,21.49
2022-10-17T16:29:24.511Z,21.40
2022-10-17T16:31:53.876Z,21.37
2022-10-17T16:34:23.307Z,21.40
2022-10-17T16:36:53.151Z,21.37
2022-10-17T16:39:22.663Z,21.39
2022-10-17T16:41:54.900Z,21.33
2022-10-17T16:44:23.835Z,21.25
2022-10-17T16:46:58.300Z,21.43
2022-10-17T16:49:27.362Z,21.28
2022-10-17T16:51:56.877Z,21.31
2022-10-17T16:54:25.867Z,21.35
2022-10-17T16:56:58.298Z,21.29
2022-10-17T16:59:24.884Z,21.33
2022-10-17T17:01:53.971Z,21.28
2022-10-17T17:04:23.114Z,21.04
2022-10-17T17:06:52.887Z,21.03
2022-10-17T17:09:21.993Z,20.99
2022-10-17T17:11:51.854Z,20.76
2022-10-17T17:14:25.250Z,20.93
2022-10-17T17:16:54.873Z,20.91
2022-10-17T17:19:23.987Z,20.81
2022-10-17T17:21:53.062Z,20.86
2022-10-17T17:24:24.816Z,20.90
2022-10-17T17:26:54.484Z,20.91
2022-10-17T17:29:24.096Z,20.68
2022-10-17T17:31:52.954Z,20.82
2022-10-17T17:34:22.424Z,20.68
2022-10-17T17:36:52.421Z,20.72
2022-10-17T17:39:22.345Z,20.73
2022-10-17T17:41:56.916Z,20.74
2022-10-17T17:44:25.948Z,20.84
2022-10-17T17:46:54.804Z,20.85
2022-10-17T17:49:24.294Z,20.86
2022-10-17T17:51:53.659Z,20.83
2022-10-17T17:54:22.851Z,20.74
2022-10-17T17:56:52.590Z,20.81
2022-10-17T17:59:22.040Z,20.83
2022-10-17T18:01:52.935Z,20.72
2022-10-17T18:04:22.147Z,20.41
2022-10-17T18:06:52.148Z,20.72
2022-10-17T18:09:24.942Z,20.74
2022-10-17T18:11:54.943Z,20.78
2022-10-17T18:14:24.803Z,20.78
2022-10-17T18:16:53.437Z,20.67
2022-10-17T18:19:23.114Z,20.61
2022-10-17T18:21:53.236Z,20.67
2022-10-17T18:24:22.953Z,20.63
2022-10-17T18:26:59.078Z,20.59
2022-10-17T18:29:28.670Z,20.60
2022-10-17T18:31:56.319Z,20.61
2022-10-17T18:34:26.663Z,20.55
2022-10-17T18:36:58.141Z,20.55
2022-10-17T18:39:26.715Z,20.55
2022-10-17T18:41:55.818Z,20.17
2022-10-17T18:44:25.085Z,20.49
2022-10-17T18:46:58.492Z,20.50
2022-10-17T18:49:27.465Z,19.42
2022-10-17T18:51:54.073Z,20.49
2022-10-17T18:54:23.747Z,20.43
2022-10-17T18:56:54.675Z,20.33
2022-10-17T18:59:23.391Z,20.39
2022-10-17T19:01:53.387Z,20.42
2022-10-17T19:04:26.191Z,20.40
2022-10-17T19:06:55.838Z,20.44
2022-10-17T19:09:25.215Z,20.44
2022-10-17T19:11:55.738Z,20.35
2022-10-17T19:14:25.633Z,20.30
2022-10-17T19:16:56.437Z,20.26
2022-10-17T19:19:24.929Z,20.05
2022-10-17T19:21:54.396Z,20.21
2022-10-17T19:24:26.107Z,20.21
2022-10-17T19:26:57.018Z,20.23
2022-10-17T19:29:26.146Z,20.05
2022-10-17T19:32:00.379Z,19.63
2022-10-17T19:34:29.150Z,19.92
2022-10-17T19:36:58.400Z,20.07
2022-10-17T19:39:27.932Z,20.02
2022-10-17T19:41:56.743Z,20.09
2022-10-17T19:44:26.366Z,20.06
2022-10-17T19:46:56.097Z,19.90
2022-10-17T19:49:25.394Z,19.98
2022-10-17T19:51:55.916Z,19.90
2022-10-17T19:54:24.868Z,20.04
2022-10-17T19:56:54.540Z,19.73
2022-10-17T19:59:26.826Z,20.13
2022-10-17T20:01:57.006Z,19.98
2022-10-17T20:04:26.672Z,20.01
2022-10-17T20:06:59.153Z,19.01
2022-10-17T20:09:26.459Z,19.98
2022-10-17T20:11:56.410Z,20.06
2022-10-17T20:14:26.499Z,20.07
2022-10-17T20:16:57.679Z,20.04
2022-10-17T20:19:28.083Z,18.40
2022-10-17T20:21:57.752Z,19.77
2022-10-17T20:24:27.379Z,19.91
2022-10-17T20:26:59.923Z,19.92
2022-10-17T20:29:29.414Z,19.81
2022-10-17T20:31:58.374Z,19.65
2022-10-17T20:34:27.824Z,19.91
2022-10-17T20:37:00.557Z,19.57
2022-10-17T20:39:28.793Z,19.94
2022-10-17T20:41:57.527Z,19.90
2022-10-17T20:44:26.936Z,19.84
2022-10-17T20:47:02.195Z,19.88
2022-10-17T20:49:29.451Z,19.38
2022-10-17T20:51:56.353Z,19.76
2022-10-17T20:54:27.626Z,19.72
2022-10-17T20:56:57.800Z,19.68
2022-10-17T20:59:27.398Z,19.63
2022-10-17T21:01:55.050Z,19.10
2022-10-17T21:04:47.394Z,19.65
2022-10-17T21:07:13.623Z,19.58
2022-10-17T21:09:39.664Z,19.63
2022-10-17T21:12:15.272Z,19.07
2022-10-17T21:14:47.944Z,19.61
2022-10-17T21:17:13.965Z,19.61
2022-10-17T21:19:39.999Z,19.50
2022-10-17T21:22:10.659Z,19.49
2022-10-17T21:24:36.660Z,19.57
2022-10-17T21:27:02.756Z,19.10
2022-10-17T21:29:28.811Z,19.26
2022-10-17T21:32:01.184Z,19.10
2022-10-17T21:34:31.556Z,19.38
2022-10-17T21:37:00.117Z,19.40
2022-10-17T21:39:28.986Z,19.42
2022-10-17T21:41:57.943Z,19.43
2022-10-17T21:44:27.610Z,19.49
2022-10-17T21:46:56.768Z,19.41
2022-10-17T21:49:29.758Z,19.40
2022-10-17T21:51:58.853Z,19.34
2022-10-17T21:54:28.314Z,18.92
2022-10-17T21:56:57.363Z,19.30
2022-10-17T21:59:31.202Z,19.17
2022-10-17T22:01:58.765Z,19.17
2022-10-17T22:04:28.072Z,19.28
2022-10-17T22:06:56.994Z,19.36
2022-10-17T22:09:26.530Z,19.35
2022-10-17T22:11:56.211Z,18.35
2022-10-17T22:14:26.311Z,19.40
2022-10-17T22:16:58.284Z,19.44
2022-10-17T22:19:28.122Z,19.17
2022-10-17T22:21:57.293Z,19.35
2022-10-17T22:24:26.698Z,19.35
2022-10-17T22:26:57.080Z,19.30
2022-10-17T22:29:26.500Z,18.80
2022-10-17T22:31:56.291Z,19.39
2022-10-17T22:34:25.924Z,19.36
2022-10-17T22:36:55.618Z,19.34
2022-10-17T22:39:25.319Z,19.33
2022-10-17T22:41:54.640Z,19.25
2022-10-17T22:44:26.328Z,19.20
2022-10-17T22:46:56.942Z,19.18
2022-10-17T22:49:26.347Z,19.31
2022-10-17T22:51:55.605Z,19.25
2022-10-17T22:54:26.343Z,19.27
2022-10-17T22:56:56.329Z,19.19
2022-10-17T22:59:24.631Z,19.27
2022-10-17T23:01:54.722Z,19.26
2022-10-17T23:04:24.454Z,18.10
2022-10-17T23:06:54.546Z,19.16
2022-10-17T23:09:24.580Z,19.22
2022-10-17T23:11:57.317Z,19.22
2022-10-17T23:14:26.647Z,19.12
2022-10-17T23:16:56.465Z,19.16
2022-10-17T23:19:26.033Z,19.21
2022-10-17T23:21:55.865Z,19.23
2022-10-17T23:24:25.177Z,19.17
2022-10-17T23:26:55.092Z,19.29
2022-10-17T23:29:25.792Z,19.04
2022-10-17T23:31:55.380Z,19.21
2022-10-17T23:34:24.525Z,17.90
2022-10-17T23:36:54.283Z,19.08
2022-10-17T23:39:27.116Z,18.33
2022-10-17T23:41:56.573Z,18.98
2022-10-17T23:44:25.844Z,19.05
2022-10-17T23:46:55.875Z,19.11
2022-10-17T23:49:25.039Z,18.88
2022-10-17T23:51:53.981Z,19.10
2022-10-17T23:54:23.408Z,18.77
2022-10-17T23:56:53.140Z,19.11
2022-10-17T23:59:22.335Z,19.09
